createdAt,value
2022-09-02T00:01:21.309Z,1.42
2022-09-02T00:03:48.583Z,1.55
2022-09-02T00:06:16.450Z,1.50
2022-09-02T00:08:45.395Z,1.60
2022-09-02T00:11:20.351Z,1.60
2022-09-02T00:13:48.857Z,1.25
2022-09-02T00:16:15.725Z,1.25
2022-09-02T00:18:45.943Z,1.70
2022-09-02T00:21:14.852Z,1.50
2022-09-02T00:23:43.916Z,1.55
2022-09-02T00:26:11.886Z,1.40
2022-09-02T00:28:39.248Z,1.38
2022-09-02T00:31:09.552Z,1.45
2022-09-02T00:33:36.211Z,1.52
2022-09-02T00:36:04.437Z,1.50
2022-09-02T00:38:36.510Z,1.75
2022-09-02T00:41:07.120Z,1.65
2022-09-02T00:43:57.621Z,1.33
2022-09-02T00:46:26.351Z,1.98
2022-09-02T00:49:25.651Z,1.65
2022-09-02T00:52:13.582Z,1.65
2022-09-02T00:54:53.175Z,1.60
2022-09-02T00:57:23.338Z,1.80
2022-09-02T01:00:06.575Z,1.80
2022-09-02T01:02:34.340Z,1.90
2022-09-02T01:05:02.535Z,1.90
2022-09-02T01:07:34.144Z,1.55
2022-09-02T01:10:06.932Z,1.83
2022-09-02T01:12:35.908Z,1.95
2022-09-02T01:15:05.996Z,1.60
2022-09-02T01:17:34.815Z,1.80
2022-09-02T01:20:12.216Z,2.17
2022-09-02T01:22:42.491Z,1.75
2022-09-02T01:25:23.333Z,1.60
2022-09-02T01:27:50.953Z,1.80
2022-09-02T01:30:22.093Z,1.95
2022-09-02T01:32:49.217Z,1.92
2022-09-02T01:35:16.653Z,1.80
2022-09-02T01:37:50.656Z,1.70
2022-09-02T01:40:24.891Z,1.60
2022-09-02T01:42:56.330Z,1.65
2022-09-02T01:45:23.714Z,1.98
2022-09-02T01:47:51.130Z,1.58
2022-09-02T01:50:18.622Z,1.55
2022-09-02T01:52:45.273Z,1.50
2022-09-02T01:55:13.060Z,1.98
2022-09-02T01:57:40.164Z,2.05
2022-09-02T02:00:10.148Z,1.90
2022-09-02T02:02:37.652Z,2.35
2022-09-02T02:05:05.608Z,1.80
2022-09-02T02:07:32.610Z,2.13
2022-09-02T02:09:59.496Z,2.30
2022-09-02T02:12:26.364Z,2.13
2022-09-02T02:14:53.196Z,2.10
2022-09-02T02:17:21.758Z,2.47
2022-09-02T02:19:48.416Z,2.42
2022-09-02T02:22:15.794Z,2.67
2022-09-02T02:24:42.593Z,2.42
2022-09-02T02:27:09.406Z,2.22
2022-09-02T02:29:36.192Z,2.40
2022-09-02T02:32:03.751Z,2.60
2022-09-02T02:34:30.773Z,2.75
2022-09-02T02:36:57.583Z,2.55
2022-09-02T02:39:24.298Z,2.53
2022-09-02T02:41:51.745Z,2.90
2022-09-02T02:44:19.327Z,2.88
2022-09-02T02:46:47.149Z,3.05
2022-09-02T02:49:14.025Z,2.90
2022-09-02T02:51:41.473Z,3.20
2022-09-02T02:54:08.484Z,3.10
2022-09-02T02:56:35.369Z,3.85
2022-09-02T02:59:03.478Z,3.50
2022-09-02T03:01:32.146Z,3.42
2022-09-02T03:03:59.564Z,3.33
2022-09-02T03:06:26.843Z,3.67
2022-09-02T03:08:53.724Z,3.40
2022-09-02T03:11:22.551Z,3.30
2022-09-02T03:13:51.405Z,3.63
2022-09-02T03:16:20.113Z,3.63
2022-09-02T03:18:49.041Z,3.65
2022-09-02T03:21:16.138Z,3.55
2022-09-02T03:23:44.390Z,3.90
2022-09-02T03:26:14.095Z,3.58
2022-09-02T03:28:40.868Z,3.95
2022-09-02T03:31:12.849Z,3.92
2022-09-02T03:33:39.570Z,4.13
2022-09-02T03:36:06.524Z,4.10
2022-09-02T03:38:35.519Z,4.05
2022-09-02T03:41:02.154Z,4.05
2022-09-02T03:43:29.456Z,3.90
2022-09-02T03:45:56.256Z,3.80
2022-09-02T03:48:23.186Z,3.65
2022-09-02T03:50:50.516Z,3.72
2022-09-02T03:53:18.239Z,3.90
2022-09-02T03:55:47.093Z,3.88
2022-09-02T03:58:15.959Z,4.40
2022-09-02T04:00:44.199Z,4.25
2022-09-02T04:03:11.175Z,4.40
2022-09-02T04:05:39.625Z,4.32
2022-09-02T04:08:06.529Z,4.43
2022-09-02T04:10:33.129Z,4.63
2022-09-02T04:13:00.162Z,4.65
2022-09-02T04:15:26.816Z,4.55
2022-09-02T04:17:53.411Z,4.40
2022-09-02T04:20:21.252Z,4.90
2022-09-02T04:22:47.806Z,4.80
2022-09-02T04:25:15.113Z,4.75
2022-09-02T04:27:42.011Z,4.80
2022-09-02T04:30:09.521Z,5.13
2022-09-02T04:32:40.649Z,5.10
2022-09-02T04:35:08.077Z,4.88
2022-09-02T04:37:34.836Z,4.90
2022-09-02T04:40:02.887Z,4.90
2022-09-02T04:42:30.065Z,5.20
2022-09-02T04:44:57.836Z,4.70
2022-09-02T04:47:24.436Z,5.20
2022-09-02T04:49:51.640Z,4.80
2022-09-02T04:52:20.470Z,5.22
2022-09-02T04:54:47.869Z,5.15
2022-09-02T04:57:14.469Z,4.82
2022-09-02T04:59:41.421Z,4.97
2022-09-02T05:02:08.499Z,5.28
2022-09-02T05:04:35.897Z,5.10
2022-09-02T05:07:02.744Z,5.15
2022-09-02T05:09:31.418Z,5.55
2022-09-02T05:11:58.610Z,5.70
2022-09-02T05:14:26.623Z,5.20
2022-09-02T05:16:56.433Z,5.70
2022-09-02T05:19:24.014Z,5.45
2022-09-02T05:21:55.816Z,5.30
2022-09-02T05:24:26.586Z,5.00
2022-09-02T05:26:53.783Z,5.00
2022-09-02T05:29:21.775Z,4.75
2022-09-02T05:31:48.893Z,4.95
2022-09-02T05:34:17.789Z,5.15
2022-09-02T05:36:45.811Z,4.75
2022-09-02T05:39:14.653Z,5.22
2022-09-02T05:41:42.052Z,5.13
2022-09-02T05:44:09.148Z,5.05
2022-09-02T05:46:36.207Z,4.68
2022-09-02T05:49:12.392Z,4.63
2022-09-02T05:51:46.937Z,4.68
2022-09-02T05:54:20.994Z,4.70
2022-09-02T05:56:51.146Z,4.65
2022-09-02T05:59:18.263Z,4.07
2022-09-02T06:01:45.069Z,4.38
2022-09-02T06:04:11.945Z,4.60
2022-09-02T06:06:38.790Z,4.30
2022-09-02T06:09:08.573Z,3.72
2022-09-02T06:11:39.796Z,4.07
2022-09-02T06:14:07.970Z,3.75
2022-09-02T06:16:35.962Z,3.90
2022-09-02T06:19:05.358Z,4.00
2022-09-02T06:21:34.047Z,3.67
2022-09-02T06:24:00.937Z,3.30
2022-09-02T06:26:28.526Z,3.80
2022-09-02T06:28:56.113Z,3.72
2022-09-02T06:31:24.564Z,2.92
2022-09-02T06:33:57.110Z,3.45
2022-09-02T06:36:28.315Z,3.20
2022-09-02T06:38:57.856Z,3.20
2022-09-02T06:41:28.326Z,2.83
2022-09-02T06:44:00.882Z,2.80
2022-09-02T06:46:40.546Z,2.55
2022-09-02T06:49:09.153Z,2.78
2022-09-02T06:51:40.215Z,2.42
2022-09-02T06:54:10.674Z,2.70
2022-09-02T06:56:42.379Z,2.65
2022-09-02T06:59:12.073Z,2.60
2022-09-02T07:01:39.004Z,2.70
2022-09-02T07:04:24.518Z,2.53
2022-09-02T07:06:54.113Z,2.40
2022-09-02T07:09:37.610Z,2.50
2022-09-02T07:12:05.490Z,2.20
2022-09-02T07:14:36.405Z,2.58
2022-09-02T07:17:03.199Z,2.47
2022-09-02T07:19:30.154Z,2.35
2022-09-02T07:21:56.791Z,2.10
2022-09-02T07:24:24.331Z,2.13
2022-09-02T07:28:02.354Z,2.00
2022-09-02T07:30:29.291Z,1.70
2022-09-02T07:32:56.609Z,1.65
2022-09-02T07:35:23.533Z,1.80
2022-09-02T07:37:51.131Z,1.60
2022-09-02T07:40:17.935Z,1.67
2022-09-02T07:42:46.328Z,1.67
2022-09-02T07:45:13.868Z,1.65
2022-09-02T07:47:40.540Z,1.60
2022-09-02T07:50:19.518Z,1.33
2022-09-02T07:52:46.966Z,1.63
2022-09-02T07:55:15.050Z,1.50
2022-09-02T07:57:41.970Z,1.30
2022-09-02T08:00:09.331Z,1.13
2022-09-02T08:02:35.991Z,1.50
2022-09-02T08:05:02.812Z,1.20
2022-09-02T08:07:29.512Z,1.13
2022-09-02T08:09:56.175Z,1.40
2022-09-02T08:12:23.040Z,1.20
2022-09-02T08:14:50.482Z,1.67
2022-09-02T08:17:17.571Z,1.20
2022-09-02T08:19:45.173Z,1.42
2022-09-02T08:22:11.778Z,1.30
2022-09-02T08:24:39.157Z,1.50
2022-09-02T08:27:06.322Z,1.40
2022-09-02T08:29:33.270Z,1.30
2022-09-02T08:31:59.949Z,1.20
2022-09-02T08:34:26.725Z,1.40
2022-09-02T08:36:56.753Z,1.10
2022-09-02T08:42:16.770Z,1.00
2022-09-02T08:44:43.451Z,0.85
2022-09-02T08:47:15.302Z,1.10
2022-09-02T08:49:50.558Z,1.02
2022-09-02T08:52:30.288Z,1.25
2022-09-02T08:54:57.609Z,1.10
2022-09-02T09:08:21.848Z,1.00
2022-09-02T09:10:54.821Z,1.20
2022-09-02T09:13:34.418Z,1.33
2022-09-02T09:16:19.667Z,1.15
2022-09-02T09:19:13.185Z,1.27
2022-09-02T09:21:41.168Z,1.38
2022-09-02T09:24:18.803Z,1.20
2022-09-02T09:26:47.418Z,1.33
2022-09-02T09:29:15.668Z,1.23
2022-09-02T09:31:45.275Z,1.30
2022-09-02T09:34:14.606Z,1.23
2022-09-02T09:36:41.499Z,1.20
2022-09-02T09:39:32.161Z,1.02
2022-09-02T09:42:04.834Z,1.08
2022-09-02T09:44:41.016Z,1.17
2022-09-02T09:47:19.893Z,0.98
2022-09-02T09:49:51.803Z,0.90
2022-09-02T09:52:29.749Z,0.90
2022-09-02T09:55:25.063Z,0.70
2022-09-02T09:57:53.324Z,0.80
2022-09-02T10:00:31.970Z,0.70
2022-09-02T10:03:05.302Z,0.60
2022-09-02T10:05:38.072Z,0.80
2022-09-02T10:08:27.161Z,0.52
2022-09-02T10:11:03.078Z,0.60
2022-09-02T10:13:36.345Z,0.77
2022-09-02T10:16:42.617Z,0.80
2022-09-02T10:19:19.254Z,0.70
2022-09-02T10:22:04.872Z,0.80
2022-09-02T10:24:51.313Z,1.05
2022-09-02T10:27:33.678Z,0.68
2022-09-02T10:33:22.049Z,0.60
2022-09-02T10:35:48.726Z,0.75
2022-09-02T10:38:31.503Z,1.00
2022-09-02T10:41:31.645Z,0.80
2022-09-02T10:44:28.052Z,0.80
2022-09-02T10:47:04.253Z,0.60
2022-09-02T10:49:46.187Z,0.70
2022-09-02T10:52:45.294Z,0.70
2022-09-02T10:55:43.023Z,0.88
2022-09-02T10:58:45.661Z,0.80
2022-09-02T11:01:19.792Z,0.80
2022-09-02T11:03:54.182Z,0.80
2022-09-02T11:06:46.025Z,1.20
2022-09-02T11:09:47.979Z,0.90
2022-09-02T11:12:17.412Z,0.70
2022-09-02T11:14:53.824Z,0.50
2022-09-02T11:17:36.826Z,0.90
2022-09-02T11:20:15.589Z,0.88
2022-09-02T11:22:54.700Z,1.00
2022-09-02T11:25:44.557Z,0.80
2022-09-02T11:28:25.485Z,0.80
2022-09-02T11:31:30.590Z,1.00
2022-09-02T11:34:05.365Z,0.73
2022-09-02T11:36:39.223Z,0.90
2022-09-02T11:39:21.905Z,0.70
2022-09-02T11:42:32.058Z,0.90
2022-09-02T11:48:07.901Z,0.68
2022-09-02T11:50:57.229Z,0.77
2022-09-02T11:53:42.623Z,0.80
2022-09-02T11:56:22.149Z,0.73
2022-09-02T11:58:53.215Z,0.70
2022-09-02T12:01:28.080Z,0.63
2022-09-02T12:07:13.862Z,0.60
2022-09-02T12:09:48.859Z,0.70
2022-09-02T12:12:38.503Z,0.60
2022-09-02T12:15:05.478Z,0.80
2022-09-02T12:18:01.866Z,0.82
2022-09-02T12:20:41.156Z,0.80
2022-09-02T12:23:09.616Z,0.95
2022-09-02T12:26:01.264Z,0.80
2022-09-02T12:28:33.660Z,0.63
2022-09-02T12:31:07.864Z,0.70
2022-09-02T12:33:38.000Z,0.70
2022-09-02T12:36:07.554Z,0.80
2022-09-02T12:38:43.045Z,0.60
2022-09-02T12:41:23.143Z,0.70
2022-09-02T12:44:15.339Z,0.70
2022-09-02T12:46:50.926Z,0.80
2022-09-02T12:49:28.605Z,0.95
2022-09-02T12:51:57.372Z,0.70
2022-09-02T12:54:32.216Z,0.80
2022-09-02T12:56:59.958Z,0.70
2022-09-02T12:59:33.119Z,0.80
2022-09-02T13:02:02.993Z,0.60
2022-09-02T13:04:35.778Z,0.50
2022-09-02T13:07:32.440Z,0.90
2022-09-02T13:10:19.072Z,0.70
2022-09-02T13:13:27.623Z,0.70
2022-09-02T13:16:18.360Z,0.85
2022-09-02T13:19:30.703Z,0.88
2022-09-02T13:22:31.183Z,0.80
2022-09-02T13:25:23.125Z,0.90
2022-09-02T13:28:36.160Z,0.70
2022-09-02T13:31:23.256Z,1.10
2022-09-02T13:34:11.735Z,0.75
2022-09-02T13:36:46.041Z,0.70
2022-09-02T13:39:32.904Z,0.77
2022-09-02T13:45:56.721Z,1.08
2022-09-02T13:48:26.594Z,0.70
2022-09-02T13:50:59.416Z,0.65
2022-09-02T13:53:45.910Z,0.70
2022-09-02T13:56:30.514Z,0.80
2022-09-02T13:58:57.157Z,0.70
2022-09-02T14:01:29.716Z,0.80
2022-09-02T14:03:59.518Z,0.80
2022-09-02T14:06:39.745Z,1.17
2022-09-02T14:09:18.858Z,0.60
2022-09-02T14:11:46.902Z,0.80
2022-09-02T14:14:19.933Z,0.70
2022-09-02T14:16:46.537Z,0.80
2022-09-02T14:19:22.258Z,0.50
2022-09-02T14:21:51.357Z,0.80
2022-09-02T14:24:24.159Z,0.85
2022-09-02T14:26:54.391Z,0.82
2022-09-02T14:29:22.053Z,1.20
2022-09-02T14:32:22.858Z,1.10
2022-09-02T14:35:08.927Z,0.80
2022-09-02T14:37:52.258Z,0.75
2022-09-02T14:40:32.813Z,1.00
2022-09-02T14:43:00.068Z,0.65
2022-09-02T14:45:35.033Z,0.68
2022-09-02T14:48:19.795Z,0.73
2022-09-02T14:50:46.504Z,0.80
2022-09-02T14:53:22.330Z,0.88
2022-09-02T14:55:49.944Z,0.90
2022-09-02T14:58:17.402Z,0.93
2022-09-02T15:00:46.972Z,1.13
2022-09-02T15:03:16.153Z,1.00
2022-09-02T15:05:43.401Z,1.10
2022-09-02T15:08:10.913Z,1.30
2022-09-02T15:10:40.379Z,0.93
2022-09-02T15:13:24.426Z,1.33
2022-09-02T15:15:52.257Z,1.10
2022-09-02T15:18:18.879Z,1.23
2022-09-02T15:20:45.606Z,1.00
2022-09-02T15:23:12.751Z,1.20
2022-09-02T15:25:39.977Z,1.10
2022-09-02T15:28:06.753Z,1.33
2022-09-02T15:30:36.694Z,1.30
2022-09-02T15:33:04.900Z,1.42
2022-09-02T15:35:34.113Z,1.35
2022-09-02T15:38:04.510Z,1.40
2022-09-02T15:40:31.797Z,1.70
2022-09-02T15:42:59.919Z,1.52
2022-09-02T15:45:28.033Z,1.70
2022-09-02T15:47:58.564Z,1.83
2022-09-02T15:50:26.160Z,1.80
2022-09-02T15:52:55.879Z,1.58
2022-09-02T15:55:26.399Z,1.70
2022-09-02T15:57:56.626Z,1.40
2022-09-02T16:00:24.263Z,1.77
2022-09-02T16:02:56.843Z,1.40
2022-09-02T16:05:24.527Z,1.15
2022-09-02T16:07:54.936Z,1.20
2022-09-02T16:10:21.685Z,1.20
2022-09-02T16:12:48.703Z,1.23
2022-09-02T16:15:15.678Z,0.90
2022-09-02T16:17:42.402Z,0.80
2022-09-02T16:20:09.281Z,0.73
2022-09-02T16:22:36.079Z,0.80
2022-09-02T16:25:02.695Z,0.77
2022-09-02T16:27:48.030Z,0.85
2022-09-02T16:30:14.889Z,0.80
2022-09-02T16:32:41.477Z,1.00
2022-09-02T16:35:08.616Z,0.70
2022-09-02T16:37:35.207Z,0.85
2022-09-02T16:40:03.332Z,0.80
2022-09-02T16:42:30.795Z,1.00
2022-09-02T16:44:58.708Z,0.63
2022-09-02T16:47:25.390Z,0.73
2022-09-02T16:49:51.960Z,0.80
2022-09-02T16:52:18.595Z,0.77
2022-09-02T16:54:45.168Z,0.60
2022-09-02T16:57:11.923Z,0.80
2022-09-02T16:59:38.508Z,0.70
2022-09-02T17:02:05.757Z,0.70
2022-09-02T17:04:32.377Z,0.73
2022-09-02T17:07:00.170Z,0.60
2022-09-02T17:09:26.821Z,0.82
2022-09-02T17:11:54.187Z,0.98
2022-09-02T17:14:21.739Z,0.82
2022-09-02T17:16:50.562Z,0.60
2022-09-02T17:19:22.413Z,1.02
2022-09-02T17:21:51.624Z,0.75
2022-09-02T17:24:20.773Z,0.90
2022-09-02T17:26:50.633Z,0.77
2022-09-02T17:32:07.021Z,0.73
2022-09-02T17:34:34.608Z,0.95
2022-09-02T17:37:01.228Z,1.13
2022-09-02T17:39:27.881Z,0.80
2022-09-02T17:41:54.534Z,0.90
2022-09-02T17:44:36.125Z,0.98
2022-09-02T17:47:05.950Z,0.80
2022-09-02T17:49:36.868Z,0.93
2022-09-02T17:52:08.063Z,0.80
2022-09-02T17:54:36.005Z,0.82
2022-09-02T17:57:17.395Z,0.70
2022-09-02T18:00:03.366Z,1.02
2022-09-02T18:02:35.988Z,0.93
2022-09-02T18:05:14.609Z,0.70
2022-09-02T18:08:01.206Z,0.90
2022-09-02T18:10:36.192Z,0.80
2022-09-02T18:13:06.671Z,0.77
2022-09-02T18:15:43.596Z,0.75
2022-09-02T18:18:18.750Z,0.82
2022-09-02T18:20:52.811Z,1.20
2022-09-02T18:23:37.418Z,0.82
2022-09-02T18:26:18.952Z,0.80
2022-09-02T18:29:30.852Z,1.05
2022-09-02T18:32:06.053Z,0.98
2022-09-02T18:34:38.351Z,1.00
2022-09-02T18:37:33.796Z,0.75
2022-09-02T18:40:25.192Z,0.70
2022-09-02T18:43:07.150Z,0.98
2022-09-02T18:45:38.952Z,1.08
2022-09-02T18:48:12.469Z,0.93
2022-09-02T18:50:54.339Z,1.00
2022-09-02T18:53:29.612Z,0.82
2022-09-02T18:55:59.852Z,0.90
2022-09-02T18:59:11.838Z,0.80
2022-09-02T19:01:46.183Z,1.20
2022-09-02T19:04:14.774Z,0.90
2022-09-02T19:06:41.538Z,1.02
2022-09-02T19:09:13.448Z,1.00
2022-09-02T19:11:40.769Z,1.00
2022-09-02T19:14:22.545Z,0.88
2022-09-02T19:16:49.946Z,0.73
2022-09-02T19:19:18.179Z,0.85
2022-09-02T19:21:47.031Z,0.98
2022-09-02T19:24:21.324Z,0.80
2022-09-02T19:26:49.081Z,0.73
2022-09-02T19:29:17.120Z,1.00
2022-09-02T19:31:46.538Z,0.90
2022-09-02T19:34:14.289Z,0.82
2022-09-02T19:36:45.172Z,0.70
2022-09-02T19:39:11.830Z,0.98
2022-09-02T19:41:39.323Z,0.73
2022-09-02T19:44:05.902Z,0.90
2022-09-02T19:47:15.298Z,0.80
2022-09-02T19:49:19.793Z,0.90
2022-09-02T19:51:47.086Z,1.00
2022-09-02T19:54:15.137Z,1.10
2022-09-02T19:56:42.281Z,0.90
2022-09-02T19:59:09.080Z,0.90
2022-09-02T20:01:36.282Z,1.00
2022-09-02T20:04:04.831Z,0.85
2022-09-02T20:06:31.850Z,1.20
2022-09-02T20:08:58.725Z,0.98
2022-09-02T20:11:25.437Z,0.75
2022-09-02T20:13:52.989Z,0.95
2022-09-02T20:16:25.325Z,1.10
2022-09-02T20:18:53.646Z,0.77
2022-09-02T20:21:45.461Z,0.93
2022-09-02T20:24:17.811Z,0.75
2022-09-02T20:27:02.520Z,0.90
2022-09-02T20:29:51.878Z,0.90
2022-09-02T20:32:24.256Z,0.63
2022-09-02T20:35:24.374Z,0.80
2022-09-02T20:38:14.580Z,1.23
2022-09-02T20:40:57.823Z,0.85
2022-09-02T20:43:58.520Z,0.95
2022-09-02T20:46:28.233Z,0.98
2022-09-02T20:49:15.711Z,0.95
2022-09-02T20:52:15.639Z,0.95
2022-09-02T20:54:54.504Z,1.10
2022-09-02T20:57:32.227Z,1.00
2022-09-02T21:00:19.428Z,0.90
2022-09-02T21:02:59.057Z,0.80
2022-09-02T21:05:29.819Z,1.00
2022-09-02T21:08:04.937Z,0.80
2022-09-02T21:10:34.262Z,0.80
2022-09-02T21:13:13.037Z,0.90
2022-09-02T21:15:44.630Z,0.80
2022-09-02T21:18:29.850Z,0.75
2022-09-02T21:21:04.494Z,0.90
2022-09-02T21:23:38.420Z,1.00
2022-09-02T21:26:18.549Z,0.70
2022-09-02T21:29:02.013Z,0.80
2022-09-02T21:31:38.517Z,1.10
2022-09-02T21:34:30.721Z,1.05
2022-09-02T21:36:58.838Z,0.85
2022-09-02T21:39:30.029Z,0.80
2022-09-02T21:48:10.176Z,0.82
2022-09-02T21:50:50.748Z,0.70
2022-09-02T21:53:34.168Z,0.90
2022-09-02T21:56:09.732Z,0.90
2022-09-02T21:58:46.286Z,0.98
2022-09-02T22:01:28.911Z,0.85
2022-09-02T22:04:02.447Z,0.82
2022-09-02T22:06:42.272Z,1.00
2022-09-02T22:09:28.532Z,1.02
2022-09-02T22:12:11.105Z,0.80
2022-09-02T22:14:59.030Z,0.75
2022-09-02T22:17:44.549Z,1.00
2022-09-02T22:20:17.594Z,0.80
2022-09-02T22:22:53.518Z,0.80
2022-09-02T22:25:21.762Z,0.70
2022-09-02T22:28:05.330Z,0.68
2022-09-02T22:30:36.562Z,0.88
2022-09-02T22:33:14.432Z,0.80
2022-09-02T22:35:55.528Z,0.70
2022-09-02T22:38:45.013Z,0.90
2022-09-02T22:41:33.256Z,0.80
2022-09-02T22:44:13.332Z,0.90
2022-09-02T22:47:24.958Z,1.25
2022-09-02T22:50:13.652Z,0.88
2022-09-02T22:52:47.404Z,0.90
2022-09-02T22:55:21.044Z,1.10
2022-09-02T22:58:02.492Z,0.93
2022-09-02T23:00:35.585Z,0.80
2022-09-02T23:03:24.153Z,1.25
2022-09-02T23:06:08.310Z,1.02
2022-09-02T23:08:38.580Z,0.90
2022-09-02T23:11:12.999Z,1.00
2022-09-02T23:13:58.978Z,0.95
2022-09-02T23:16:35.174Z,1.10
2022-09-02T23:19:16.214Z,1.00
2022-09-02T23:22:01.745Z,0.95
2022-09-02T23:24:46.411Z,1.20
2022-09-02T23:27:23.727Z,1.10
2022-09-02T23:29:55.353Z,1.20
2022-09-02T23:32:27.639Z,0.90
2022-09-02T23:35:03.338Z,0.90
2022-09-02T23:37:45.918Z,1.20
2022-09-02T23:40:33.501Z,0.82
2022-09-02T23:43:00.405Z,0.98
2022-09-02T23:45:31.973Z,1.00
2022-09-02T23:48:23.524Z,1.00
2022-09-02T23:50:57.472Z,1.00
2022-09-02T23:53:32.665Z,0.95
2022-09-02T23:56:16.324Z,1.02
2022-09-02T23:58:59.414Z,0.90
